Asterion — FICK — position and weather

sailwx.info

Track history (hours):
 
Tides and Currents Weather Stations Pressure Air Temp Water Temp Dewpoint Dewpoint Depression Visibility Wind Speed Wind Dir Waves Ship Positions

Asterion

Last reported at 2015-Jan-23 23:33 UTC. Time now 2015-Feb-01 22:50 UTC.
Position N 35°58' W 005°18'.
Warning: this ship's position is 8 days out of date.

Length 184 m; draft 10.9 m.

Type: Tanker. MMSI: 226000000.

Date/timePositionNaut miles runAvg speedWind from/ knotsBaromVisibWave heightAir tempDewpointWater temp
2015-Jan-23 23:33N 35°58' W 005°18'271 9.3
2015-Jan-22 18:26N 38°22' W 010°06'910.5
2015-Jan-22 17:33N 38°31' W 010°08'1110.6
2015-Jan-22 16:29N 38°42' W 010°11'  
2015-Jan-19 09:10N 50°27' W 000°25'2111.5
2015-Jan-19 07:21N 50°32' E 000°07'911.6
2015-Jan-19 06:34N 50°34' E 000°21'1212.5
2015-Jan-19 05:34N 50°40' E 000°39'1414.3
2015-Jan-19 04:33N 50°48' E 000°57'1515.0
2015-Jan-19 03:33N 50°58' E 001°15'1414.3
2015-Jan-19 02:33N 51°07' E 001°32'1312.6
2015-Jan-19 01:33N 51°16' E 001°47'1212.1
2015-Jan-19 00:33N 51°27' E 001°56'1212.1
2015-Jan-18 23:33N 51°36' E 002°08'10213.8
2015-Jan-18 16:11N 53°08' E 003°21'31812.3
2015-Jan-17 14:18N 57°26' E 008°46'5910.2
2015-Jan-17 08:34N 57°49' E 010°27'1211.2
2015-Jan-17 07:28N 57°48' E 010°50'1212.6
2015-Jan-17 06:33N 57°43' E 011°09'1312.6
2015-Jan-17 05:33N 57°37' E 011°30'6 6.3
2015-Jan-17 04:34N 57°38' E 011°41'7 6.8
2015-Jan-17 03:34N 57°41' E 011°53'0 0.0
2015-Jan-17 02:31N 57°41' E 011°53'0 0.0
2015-Jan-17 01:31N 57°41' E 011°53'0 0.0
2015-Jan-17 00:31N 57°41' E 011°53'0 0.0
2015-Jan-16 23:31N 57°41' E 011°53'0 0.0
2015-Jan-16 22:31N 57°41' E 011°53'0 0.0
2015-Jan-16 21:31N 57°41' E 011°53'0 0.0
2015-Jan-16 20:31N 57°41' E 011°53'0 0.0
2015-Jan-16 19:31N 57°41' E 011°53'0 0.0
2015-Jan-16 18:31N 57°41' E 011°53'0 0.0
2015-Jan-16 17:31N 57°41' E 011°53'0 0.0
2015-Jan-16 16:31N 57°41' E 011°53'0 0.0
2015-Jan-16 15:31N 57°41' E 011°53'0 0.0
2015-Jan-16 14:31N 57°41' E 011°53'0 0.0
2015-Jan-16 13:31N 57°41' E 011°53'0 0.0
2015-Jan-16 12:31N 57°41' E 011°53'0 0.0
2015-Jan-16 11:31N 57°41' E 011°53'0 0.0
2015-Jan-16 10:31N 57°41' E 011°53'0 0.0
2015-Jan-16 09:31N 57°41' E 011°53'0 0.0
2015-Jan-16 08:31N 57°41' E 011°53'0 0.0
2015-Jan-16 07:31N 57°41' E 011°53'0 0.0
2015-Jan-16 06:31N 57°41' E 011°53'0 0.0
2015-Jan-16 05:31N 57°41' E 011°53'0 0.0
2015-Jan-16 04:31N 57°41' E 011°53'0 0.0
2015-Jan-16 03:31N 57°41' E 011°53'0 0.0
2015-Jan-16 02:31N 57°41' E 011°53'0 0.0
2015-Jan-16 01:31N 57°41' E 011°53'0 0.0
2015-Jan-16 00:31N 57°41' E 011°53'0 0.0
2015-Jan-15 23:31N 57°41' E 011°53'0 0.0
2015-Jan-15 22:31N 57°41' E 011°53'0 0.0
2015-Jan-15 21:31N 57°41' E 011°53'0 0.0
2015-Jan-15 20:31N 57°41' E 011°53'0 0.0
2015-Jan-15 19:31N 57°41' E 011°53'0 0.0
2015-Jan-15 18:31N 57°41' E 011°53'0 0.0
2015-Jan-15 17:31N 57°41' E 011°53'0 0.0
2015-Jan-15 16:31N 57°41' E 011°53'0 0.0
2015-Jan-15 15:34N 57°41' E 011°53'0 0.0
2015-Jan-15 14:28N 57°41' E 011°53'0 0.0
2015-Jan-15 13:31N 57°41' E 011°53'0 0.0
2015-Jan-15 12:31N 57°41' E 011°53'0 0.0
2015-Jan-15 11:31N 57°41' E 011°53'0 0.0
2015-Jan-15 10:31N 57°41' E 011°53'0 0.0
2015-Jan-15 09:31N 57°41' E 011°53'0 0.0
2015-Jan-15 08:31N 57°41' E 011°53'0 0.0
2015-Jan-15 07:33N 57°41' E 011°53'3 2.8
2015-Jan-15 06:34N 57°40' E 011°48'8 7.5
2015-Jan-15 05:33N 57°35' E 011°38'2 1.6
2015-Jan-15 04:33N 57°34' E 011°37'6 5.7
2015-Jan-15 03:33N 57°37' E 011°28'1211.8
2015-Jan-15 02:33N 57°42' E 011°08'1212.0
2015-Jan-15 01:33N 57°47' E 010°48'1313.3
2015-Jan-15 00:33N 57°49' E 010°23'6813.2
2015-Jan-14 19:24N 57°17' E 008°31'2812.8
2015-Jan-14 17:14N 56°57' E 007°56'18912.6
2015-Jan-14 02:13N 54°16' E 005°00'913.7
2015-Jan-14 01:33N 54°08' E 004°51'1313.6
2015-Jan-14 00:33N 53°57' E 004°39'  
Track history (hours):
 
Tides and Currents Weather Stations Pressure Air Temp Water Temp Dewpoint Dewpoint Depression Visibility Wind Speed Wind Dir Waves Ship Positions

Asterion

Last reported at 2015-Jan-23 23:33 UTC. Time now 2015-Feb-01 22:50 UTC.
Position N 35°58' W 005°18'.
Warning: this ship's position is 8 days out of date.

Length 184 m; draft 10.9 m.

Type: Tanker. MMSI: 226000000.

Date/timePositionNaut miles runAvg speedWind from/ knotsBaromVisibWave heightAir tempDewpointWater temp
2015-Jan-23 23:33N 35°58' W 005°18'271 9.3
2015-Jan-22 18:26N 38°22' W 010°06'910.5
2015-Jan-22 17:33N 38°31' W 010°08'1110.6
2015-Jan-22 16:29N 38°42' W 010°11'  
2015-Jan-19 09:10N 50°27' W 000°25'2111.5
2015-Jan-19 07:21N 50°32' E 000°07'911.6
2015-Jan-19 06:34N 50°34' E 000°21'1212.5
2015-Jan-19 05:34N 50°40' E 000°39'1414.3
2015-Jan-19 04:33N 50°48' E 000°57'1515.0
2015-Jan-19 03:33N 50°58' E 001°15'1414.3
2015-Jan-19 02:33N 51°07' E 001°32'1312.6
2015-Jan-19 01:33N 51°16' E 001°47'1212.1
2015-Jan-19 00:33N 51°27' E 001°56'1212.1
2015-Jan-18 23:33N 51°36' E 002°08'10213.8
2015-Jan-18 16:11N 53°08' E 003°21'31812.3
2015-Jan-17 14:18N 57°26' E 008°46'5910.2
2015-Jan-17 08:34N 57°49' E 010°27'1211.2
2015-Jan-17 07:28N 57°48' E 010°50'1212.6
2015-Jan-17 06:33N 57°43' E 011°09'1312.6
2015-Jan-17 05:33N 57°37' E 011°30'6 6.3
2015-Jan-17 04:34N 57°38' E 011°41'7 6.8
2015-Jan-17 03:34N 57°41' E 011°53'0 0.0
2015-Jan-17 02:31N 57°41' E 011°53'0 0.0
2015-Jan-17 01:31N 57°41' E 011°53'0 0.0
2015-Jan-17 00:31N 57°41' E 011°53'0 0.0
2015-Jan-16 23:31N 57°41' E 011°53'0 0.0
2015-Jan-16 22:31N 57°41' E 011°53'0 0.0
2015-Jan-16 21:31N 57°41' E 011°53'0 0.0
2015-Jan-16 20:31N 57°41' E 011°53'0 0.0
2015-Jan-16 19:31N 57°41' E 011°53'0 0.0
2015-Jan-16 18:31N 57°41' E 011°53'0 0.0
2015-Jan-16 17:31N 57°41' E 011°53'0 0.0
2015-Jan-16 16:31N 57°41' E 011°53'0 0.0
2015-Jan-16 15:31N 57°41' E 011°53'0 0.0
2015-Jan-16 14:31N 57°41' E 011°53'0 0.0
2015-Jan-16 13:31N 57°41' E 011°53'0 0.0
2015-Jan-16 12:31N 57°41' E 011°53'0 0.0
2015-Jan-16 11:31N 57°41' E 011°53'0 0.0
2015-Jan-16 10:31N 57°41' E 011°53'0 0.0
2015-Jan-16 09:31N 57°41' E 011°53'0 0.0
2015-Jan-16 08:31N 57°41' E 011°53'0 0.0
2015-Jan-16 07:31N 57°41' E 011°53'0 0.0
2015-Jan-16 06:31N 57°41' E 011°53'0 0.0
2015-Jan-16 05:31N 57°41' E 011°53'0 0.0
2015-Jan-16 04:31N 57°41' E 011°53'0 0.0
2015-Jan-16 03:31N 57°41' E 011°53'0 0.0
2015-Jan-16 02:31N 57°41' E 011°53'0 0.0
2015-Jan-16 01:31N 57°41' E 011°53'0 0.0
2015-Jan-16 00:31N 57°41' E 011°53'0 0.0
2015-Jan-15 23:31N 57°41' E 011°53'0 0.0
2015-Jan-15 22:31N 57°41' E 011°53'0 0.0
2015-Jan-15 21:31N 57°41' E 011°53'0 0.0
2015-Jan-15 20:31N 57°41' E 011°53'0 0.0
2015-Jan-15 19:31N 57°41' E 011°53'0 0.0
2015-Jan-15 18:31N 57°41' E 011°53'0 0.0
2015-Jan-15 17:31N 57°41' E 011°53'0 0.0
2015-Jan-15 16:31N 57°41' E 011°53'0 0.0
2015-Jan-15 15:34N 57°41' E 011°53'0 0.0
2015-Jan-15 14:28N 57°41' E 011°53'0 0.0
2015-Jan-15 13:31N 57°41' E 011°53'0 0.0
2015-Jan-15 12:31N 57°41' E 011°53'0 0.0
2015-Jan-15 11:31N 57°41' E 011°53'0 0.0
2015-Jan-15 10:31N 57°41' E 011°53'0 0.0
2015-Jan-15 09:31N 57°41' E 011°53'0 0.0
2015-Jan-15 08:31N 57°41' E 011°53'0 0.0
2015-Jan-15 07:33N 57°41' E 011°53'3 2.8
2015-Jan-15 06:34N 57°40' E 011°48'8 7.5
2015-Jan-15 05:33N 57°35' E 011°38'2 1.6
2015-Jan-15 04:33N 57°34' E 011°37'6 5.7
2015-Jan-15 03:33N 57°37' E 011°28'1211.8
2015-Jan-15 02:33N 57°42' E 011°08'1212.0
2015-Jan-15 01:33N 57°47' E 010°48'1313.3
2015-Jan-15 00:33N 57°49' E 010°23'6813.2
2015-Jan-14 19:24N 57°17' E 008°31'2812.8
2015-Jan-14 17:14N 56°57' E 007°56'18912.6
2015-Jan-14 02:13N 54°16' E 005°00'913.7
2015-Jan-14 01:33N 54°08' E 004°51'1313.6
2015-Jan-14 00:33N 53°57' E 004°39'  

Dump ship's entire track history